Time;durP1;ratioP1;P1;durP2;ratioP2;P2;SDS_P1;SDS_P2;PMS_P1;PMS_P2;Temp;Humidity;BMP_temperature;BMP_pressure;BME280_temperature;BME280_humidity;BME280_pressure;Samples;Min_cycle;Max_cycle;Signal;HPM_P1;HPM_P2
2022/05/18 00:00:33;;;;;;;23.33;14.23;;;;;;;15.92;86.58;98456.44;5417032;26;20126;-74
2022/05/18 00:03:07;;;;;;;26.73;14.93;;;;;;;15.71;87.00;98450.69;5437332;26;20113;-74
2022/05/18 00:05:36;;;;;;;25.42;15.05;;;;;;;15.72;87.12;98454.13;5437004;26;20053;-74
2022/05/18 00:08:03;;;;;;;25.58;15.40;;;;;;;15.49;88.22;98455.41;5416679;26;20405;-74
2022/05/18 00:10:30;;;;;;;27.35;14.73;;;;;;;16.02;85.89;98454.97;5437421;26;20483;-74
2022/05/18 00:12:57;;;;;;;22.33;13.95;;;;;;;16.12;85.36;98469.13;5436720;26;20055;-74
2022/05/18 00:15:25;;;;;;;24.40;13.75;;;;;;;15.56;87.40;98465.38;5437362;26;20525;-74
2022/05/18 00:17:53;;;;;;;22.92;14.52;;;;;;;15.94;85.71;98469.34;5437139;26;20062;-74
2022/05/18 00:20:20;;;;;;;23.95;14.25;;;;;;;16.17;83.91;98476.69;5416449;26;20126;-74
2022/05/18 00:22:56;;;;;;;23.92;13.40;;;;;;;16.08;84.37;98477.22;5413796;26;623375;-74
2022/05/18 00:25:29;;;;;;;24.35;13.30;;;;;;;16.05;84.58;98475.59;5412359;26;20057;-74
2022/05/18 00:27:56;;;;;;;22.55;13.45;;;;;;;15.97;84.32;98488.25;5414197;26;20509;-74
2022/05/18 00:30:25;;;;;;;26.65;14.07;;;;;;;15.87;85.10;98481.91;5414517;26;20110;-74
2022/05/18 00:32:52;;;;;;;21.58;13.00;;;;;;;15.79;85.04;98478.88;5413891;26;20458;-74
2022/05/18 00:35:20;;;;;;;24.30;14.05;;;;;;;15.88;84.69;98489.59;5414233;26;20110;-74
2022/05/18 00:37:47;;;;;;;35.63;14.45;;;;;;;16.00;83.84;98490.66;5414088;26;20063;-74
2022/05/18 00:40:16;;;;;;;24.67;14.48;;;;;;;16.11;83.36;98490.88;5414001;26;20126;-74
2022/05/18 00:42:44;;;;;;;23.00;13.88;;;;;;;16.57;81.62;98495.97;5414215;26;20059;-74
2022/05/18 00:45:12;;;;;;;25.45;13.90;;;;;;;16.47;81.65;98497.44;5414271;26;20102;-74
2022/05/18 00:47:38;;;;;;;25.80;13.82;;;;;;;16.82;79.71;98495.38;5413665;26;20115;-74
2022/05/18 00:50:17;;;;;;;20.35;13.23;;;;;;;16.52;79.67;98497.19;5412828;26;20601;-74
2022/05/18 00:52:58;;;;;;;26.20;13.35;;;;;;;16.64;78.58;98501.66;5414220;26;20051;-74
2022/05/18 00:55:26;;;;;;;23.00;13.50;;;;;;;16.62;78.91;98503.53;5412676;26;20067;-74
2022/05/18 00:58:42;;;;;;;21.37;12.82;;;;;;;16.97;77.24;98499.63;5412715;26;20055;-74
2022/05/18 01:01:10;;;;;;;23.90;13.60;;;;;;;16.47;79.43;98506.09;5408830;26;20103;-74
2022/05/18 01:03:41;;;;;;;22.80;13.05;;;;;;;15.90;81.08;98497.31;5412679;26;20047;-74
2022/05/18 01:06:16;;;;;;;26.15;13.90;;;;;;;15.97;80.99;98500.41;5412937;26;20719;-74
2022/05/18 01:08:53;;;;;;;22.48;13.45;;;;;;;15.77;81.84;98501.56;5412225;26;20071;-74
2022/05/18 01:11:20;;;;;;;27.93;14.30;;;;;;;15.65;82.29;98508.28;5412727;26;20077;-74
2022/05/18 01:13:47;;;;;;;27.60;14.57;;;;;;;15.28;84.44;98505.06;5414212;26;20141;-74
2022/05/18 01:16:14;;;;;;;26.12;15.55;;;;;;;15.74;82.32;98512.13;5413702;26;20109;-74
2022/05/18 01:18:42;;;;;;;24.05;14.15;;;;;;;15.37;83.65;98511.53;5412600;26;20419;-74
2022/05/18 01:21:09;;;;;;;21.67;13.57;;;;;;;15.17;84.70;98509.16;5412476;26;20387;-74
2022/05/18 01:23:51;;;;;;;25.05;15.40;;;;;;;15.31;84.26;98507.53;5417699;26;20110;-74
2022/05/18 01:26:40;;;;;;;25.33;14.43;;;;;;;14.88;86.09;98495.12;5437172;26;20062;-74
2022/05/18 01:29:07;;;;;;;24.92;13.50;;;;;;;14.62;87.04;98494.75;5416133;26;20133;-74
2022/05/18 01:32:00;;;;;;;26.02;15.18;;;;;;;14.29;87.01;98496.44;5437144;26;20063;-74
2022/05/18 01:34:29;;;;;;;29.63;15.38;;;;;;;14.39;87.83;98501.09;5436957;26;20091;-74
2022/05/18 01:36:56;;;;;;;26.17;14.60;;;;;;;14.25;87.71;98513.06;5436788;26;20068;-74
2022/05/18 01:39:36;;;;;;;29.30;15.20;;;;;;;14.28;87.43;98516.38;5436809;26;20115;-74
2022/05/18 01:42:06;;;;;;;24.23;13.48;;;;;;;14.35;87.13;98514.28;5437154;26;20225;-74
2022/05/18 01:44:38;;;;;;;23.20;13.52;;;;;;;14.21;87.76;98515.00;5436715;26;20102;-74
2022/05/18 01:47:05;;;;;;;25.98;14.13;;;;;;;14.02;87.92;98520.25;5436910;26;20053;-74
2022/05/18 01:49:35;;;;;;;25.23;14.05;;;;;;;13.71;89.82;98522.66;5416136;26;20071;-74
2022/05/18 01:52:02;;;;;;;27.27;15.73;;;;;;;13.70;89.56;98524.41;5416419;26;20419;-74
2022/05/18 01:54:29;;;;;;;25.00;13.43;;;;;;;13.75;89.32;98519.84;5416306;26;20106;-73
2022/05/18 01:56:57;;;;;;;23.40;14.63;;;;;;;13.56;90.29;98532.84;5436507;26;20101;-74
2022/05/18 01:59:24;;;;;;;29.77;14.38;;;;;;;13.65;90.20;98530.72;5436736;26;20390;-73
2022/05/18 02:01:51;;;;;;;27.27;15.05;;;;;;;13.71;89.97;98543.38;5436941;26;20405;-73
2022/05/18 02:04:18;;;;;;;29.75;14.60;;;;;;;13.57;90.41;98538.88;5436499;26;20065;-73
2022/05/18 02:06:45;;;;;;;24.42;14.82;;;;;;;13.39;91.49;98540.56;5436897;26;20042;-74
2022/05/18 02:09:16;;;;;;;25.48;16.00;;;;;;;13.25;92.34;98537.75;5416256;26;20080;-73
2022/05/18 02:11:43;;;;;;;27.02;15.38;;;;;;;13.40;92.33;98539.66;5436391;26;20445;-74
2022/05/18 02:14:10;;;;;;;27.17;15.60;;;;;;;13.02;93.47;98539.63;5436870;26;20393;-74
2022/05/18 02:16:38;;;;;;;28.85;15.30;;;;;;;13.36;92.08;98537.28;5416495;26;20090;-74
2022/05/18 02:19:05;;;;;;;26.77;15.07;;;;;;;13.38;91.63;98541.47;5436034;26;20071;-73
2022/05/18 02:21:32;;;;;;;23.00;14.75;;;;;;;13.45;90.45;98550.66;5436761;26;20075;-74
2022/05/18 02:23:59;;;;;;;27.95;14.32;;;;;;;13.47;90.90;98554.00;5436396;26;20094;-74
2022/05/18 02:26:26;;;;;;;28.48;15.30;;;;;;;13.35;90.76;98556.31;5436436;26;20348;-73
2022/05/18 02:28:53;;;;;;;24.30;14.35;;;;;;;13.23;91.13;98557.72;5436419;26;20119;-73
2022/05/18 02:31:20;;;;;;;24.70;14.32;;;;;;;13.26;90.30;98560.19;5436293;26;20110;-74
2022/05/18 02:33:47;;;;;;;27.23;14.77;;;;;;;13.66;88.69;98556.59;5436755;26;20058;-74
2022/05/18 02:36:14;;;;;;;26.62;15.05;;;;;;;13.45;89.64;98562.78;5436675;26;20400;-74
2022/05/18 02:38:42;;;;;;;24.02;13.70;;;;;;;13.77;88.00;98564.69;5436097;26;20141;-74
2022/05/18 02:41:09;;;;;;;26.12;14.18;;;;;;;13.26;89.69;98573.97;5436726;26;20119;-73
2022/05/18 02:43:38;;;;;;;22.65;13.73;;;;;;;13.23;89.77;98578.47;5436448;26;20500;-74
2022/05/18 02:46:18;;;;;;;21.70;13.18;;;;;;;13.69;87.85;98578.94;5436860;26;20118;-74
2022/05/18 02:48:46;;;;;;;24.58;13.75;;;;;;;13.78;86.83;98578.50;5437649;26;20111;-74
2022/05/18 02:51:15;;;;;;;26.58;14.00;;;;;;;13.78;86.37;98581.94;5437655;26;20059;-74
2022/05/18 02:53:42;;;;;;;22.10;12.88;;;;;;;13.85;85.82;98585.94;5437103;26;20047;-74
2022/05/18 02:56:15;;;;;;;25.17;12.82;;;;;;;14.20;84.19;98588.59;5417156;26;20102;-74
2022/05/18 02:58:46;;;;;;;22.70;13.23;;;;;;;13.99;84.66;98593.06;5417311;26;20059;-74
2022/05/18 03:01:16;;;;;;;23.45;12.98;;;;;;;13.98;84.44;98587.94;5437315;26;20063;-74
2022/05/18 03:03:45;;;;;;;23.17;13.32;;;;;;;14.20;83.67;98598.97;5437656;26;20043;-74
2022/05/18 03:06:14;;;;;;;22.23;13.20;;;;;;;14.28;83.35;98594.25;5437598;26;20093;-74
2022/05/18 03:08:42;;;;;;;21.12;12.50;;;;;;;14.24;83.30;98610.03;5436861;26;20063;-74
2022/05/18 03:11:10;;;;;;;22.85;13.27;;;;;;;13.84;84.22;98610.19;5417150;26;20457;-74
2022/05/18 03:13:37;;;;;;;27.17;13.70;;;;;;;14.05;83.58;98618.72;5437028;26;20067;-74
2022/05/18 03:16:05;;;;;;;21.65;12.90;;;;;;;13.98;83.96;98619.06;5437558;26;20043;-74
2022/05/18 03:18:32;;;;;;;22.80;12.70;;;;;;;14.03;83.04;98624.88;5437403;26;20114;-74
2022/05/18 03:23:45;;;;;;;24.00;12.75;;;;;;;13.52;85.22;98635.00;5437265;26;20055;-74
2022/05/18 03:26:18;;;;;;;23.40;12.75;;;;;;;13.56;85.42;98640.91;5417382;26;20079;-74
2022/05/18 03:28:47;;;;;;;24.12;13.10;;;;;;;13.38;86.14;98642.56;5436996;26;20107;-74
2022/05/18 03:31:15;;;;;;;24.65;13.10;;;;;;;13.31;86.50;98648.94;5417306;26;20400;-73
2022/05/18 03:33:42;;;;;;;22.75;13.02;;;;;;;13.32;86.53;98658.38;5437315;26;20055;-74
2022/05/18 03:36:12;;;;;;;24.45;12.52;;;;;;;13.41;86.45;98665.75;5437067;26;20142;-74
2022/05/18 03:38:40;;;;;;;24.60;12.93;;;;;;;13.36;86.66;98662.53;5417280;26;20064;-74
2022/05/18 03:41:08;;;;;;;23.92;13.25;;;;;;;13.35;87.17;98660.00;5437492;26;20094;-73
2022/05/18 03:43:35;;;;;;;22.85;12.75;;;;;;;13.27;87.01;98665.50;5436940;26;20055;-74
2022/05/18 03:46:04;;;;;;;27.73;13.50;;;;;;;13.69;84.87;98665.34;5437401;26;20110;-74
2022/05/18 03:48:32;;;;;;;21.05;11.57;;;;;;;13.92;84.01;98673.81;5436913;26;20060;-73
2022/05/18 03:51:00;;;;;;;22.05;11.73;;;;;;;13.72;84.49;98666.97;5437405;26;20452;-73
2022/05/18 03:53:28;;;;;;;22.83;12.35;;;;;;;14.11;82.25;98677.25;5437349;26;20666;-74
2022/05/18 03:55:56;;;;;;;20.27;10.85;;;;;;;14.26;81.98;98679.12;5416514;26;20043;-74
2022/05/18 03:58:23;;;;;;;18.40;10.80;;;;;;;14.29;81.60;98678.97;5416733;26;20134;-74
2022/05/18 04:00:51;;;;;;;17.67;9.75;;;;;;;14.69;80.17;98688.31;5437466;26;20070;-74
2022/05/18 04:03:21;;;;;;;18.33;9.98;;;;;;;14.49;80.68;98691.03;5416443;26;20134;-74
2022/05/18 04:05:48;;;;;;;19.10;10.10;;;;;;;14.44;80.92;98687.78;5437399;26;20096;-73
2022/05/18 04:08:15;;;;;;;15.65;8.68;;;;;;;15.01;79.04;98694.50;5437135;26;20453;-74
2022/05/18 04:10:42;;;;;;;18.37;10.35;;;;;;;14.49;80.24;98692.81;5436978;26;20114;-74
2022/05/18 04:13:18;;;;;;;18.27;9.73;;;;;;;14.81;78.90;98691.22;5437192;26;20051;-74
2022/05/18 04:15:45;;;;;;;17.55;9.55;;;;;;;14.80;79.83;98699.94;5417090;26;20051;-74
2022/05/18 04:18:12;;;;;;;18.90;9.77;;;;;;;15.15;77.31;98703.34;5436780;26;20111;-74
2022/05/18 04:20:40;;;;;;;16.42;9.38;;;;;;;15.12;77.72;98704.38;5417032;26;20118;-74
2022/05/18 04:23:07;;;;;;;15.77;8.65;;;;;;;15.45;76.19;98711.34;5437160;26;20066;-74
2022/05/18 04:25:36;;;;;;;17.30;8.93;;;;;;;15.32;76.73;98706.78;5436897;26;20114;-74
2022/05/18 04:28:04;;;;;;;16.48;8.45;;;;;;;15.60;74.19;98720.97;5437119;26;20082;-74
2022/05/18 04:30:31;;;;;;;19.48;7.40;;;;;;;15.50;74.06;98717.97;5417008;26;20129;-74
2022/05/18 04:32:58;;;;;;;16.55;7.68;;;;;;;15.29;74.93;98727.72;5436752;26;20340;-74
2022/05/18 04:35:27;;;;;;;16.02;7.07;;;;;;;15.68;73.55;98726.63;5437328;26;20053;-74
2022/05/18 04:37:55;;;;;;;14.87;7.28;;;;;;;15.51;72.45;98730.06;5436903;26;20102;-74
2022/05/18 04:40:23;;;;;;;12.75;7.10;;;;;;;15.50;73.46;98732.75;5437212;26;20120;-74
2022/05/18 04:42:51;;;;;;;13.40;6.28;;;;;;;15.74;72.75;98735.87;5437390;26;20143;-74
2022/05/18 04:45:21;;;;;;;14.10;6.97;;;;;;;15.66;73.13;98741.47;5436878;26;20062;-74
2022/05/18 04:47:50;;;;;;;13.93;6.87;;;;;;;15.62;72.59;98738.16;5437146;26;20083;-74
2022/05/18 04:50:18;;;;;;;12.98;6.82;;;;;;;16.17;71.09;98747.44;5437359;26;20067;-74
2022/05/18 04:52:46;;;;;;;13.30;6.25;;;;;;;16.52;68.38;98749.84;5436718;26;20156;-74
2022/05/18 04:55:13;;;;;;;13.55;6.65;;;;;;;16.63;68.35;98756.16;5437293;26;20070;-74
2022/05/18 04:57:40;;;;;;;11.85;5.97;;;;;;;16.39;69.03;98768.78;5437064;26;20126;-74
2022/05/18 05:00:11;;;;;;;10.93;5.50;;;;;;;17.25;66.24;98774.37;5436942;26;20111;-74
2022/05/18 05:02:39;;;;;;;12.20;6.10;;;;;;;16.80;66.85;98772.63;5437047;26;20051;-74
2022/05/18 05:05:09;;;;;;;12.43;5.75;;;;;;;17.29;65.65;98781.91;5437258;26;20437;-74
2022/05/18 05:07:36;;;;;;;12.75;5.65;;;;;;;17.50;64.67;98786.81;5436117;26;20130;-74
2022/05/18 05:10:03;;;;;;;11.35;5.57;;;;;;;17.42;64.06;98797.69;5437046;26;20127;-74
2022/05/18 05:12:30;;;;;;;13.73;5.40;;;;;;;17.58;64.10;98797.63;5416478;26;20081;-74
2022/05/18 05:14:57;;;;;;;13.95;5.30;;;;;;;17.63;62.90;98792.97;5436814;26;20556;-74
2022/05/18 05:17:25;;;;;;;10.77;5.03;;;;;;;18.20;60.48;98809.53;5437124;26;20074;-74
2022/05/18 05:19:52;;;;;;;10.82;5.10;;;;;;;17.85;58.79;98803.81;5416501;26;20073;-74
2022/05/18 05:22:19;;;;;;;10.82;4.87;;;;;;;17.93;59.94;98813.81;5437031;26;20098;-74
2022/05/18 05:24:46;;;;;;;13.52;4.80;;;;;;;18.16;59.27;98821.06;5436710;26;20109;-74
2022/05/18 05:27:13;;;;;;;18.52;4.50;;;;;;;18.94;57.05;98816.22;5436720;26;20483;-74
2022/05/18 05:29:40;;;;;;;11.30;4.70;;;;;;;18.65;56.49;98819.84;5436986;26;20616;-74
2022/05/18 05:32:08;;;;;;;14.00;4.70;;;;;;;19.25;56.33;98829.91;5436926;26;20085;-74
2022/05/18 05:34:35;;;;;;;10.23;4.68;;;;;;;18.81;55.20;98833.59;5436776;26;20383;-74
2022/05/18 05:37:02;;;;;;;11.38;4.20;;;;;;;19.55;53.47;98834.87;5437006;26;20064;-74
2022/05/18 05:39:29;;;;;;;10.48;4.55;;;;;;;19.70;53.35;98838.28;5436868;26;20085;-74
2022/05/18 05:41:57;;;;;;;12.48;4.10;;;;;;;19.75;52.77;98836.19;5416140;26;20097;-74
2022/05/18 05:44:25;;;;;;;9.57;4.22;;;;;;;20.07;50.98;98839.22;5437050;26;20118;-74
2022/05/18 05:46:52;;;;;;;7.90;3.62;;;;;;;18.99;53.79;98842.87;5436920;26;20054;-73
2022/05/18 05:49:19;;;;;;;8.98;3.37;;;;;;;18.75;55.14;98845.31;5436402;26;20055;-74
2022/05/18 05:51:46;;;;;;;10.02;3.95;;;;;;;18.91;53.49;98842.53;5437011;26;20095;-74
2022/05/18 05:54:13;;;;;;;11.07;3.78;;;;;;;19.44;53.21;98847.81;5436973;26;20444;-74
2022/05/18 05:56:40;;;;;;;11.10;3.85;;;;;;;19.79;50.99;98856.84;5432440;26;20067;-74
2022/05/18 05:59:07;;;;;;;10.00;3.80;;;;;;;19.78;51.24;98860.41;5434179;26;20130;-75
2022/05/18 06:01:34;;;;;;;9.13;3.58;;;;;;;19.89;51.30;98863.13;5436157;26;20066;-74
2022/05/18 06:04:03;;;;;;;8.40;3.37;;;;;;;19.75;52.35;98862.38;5435927;26;20098;-75
2022/05/18 06:06:30;;;;;;;10.10;3.37;;;;;;;19.97;49.53;98878.31;5436028;26;20052;-74
2022/05/18 06:08:58;;;;;;;8.93;3.55;;;;;;;20.25;48.66;98881.66;5434620;26;20115;-74
2022/05/18 06:11:27;;;;;;;9.20;2.97;;;;;;;19.93;48.72;98887.31;5436031;26;20046;-74
2022/05/18 06:13:55;;;;;;;10.00;3.78;;;;;;;20.19;49.26;98899.47;5415728;26;20047;-75
2022/05/18 06:16:22;;;;;;;10.05;3.28;;;;;;;20.13;48.86;98899.91;5435699;26;20415;-75
2022/05/18 06:18:50;;;;;;;9.00;3.12;;;;;;;20.08;48.46;98907.22;5414936;26;20523;-76
2022/05/18 06:21:17;;;;;;;9.27;2.80;;;;;;;19.69;48.22;98909.91;5436644;26;20067;-77
2022/05/18 06:23:48;;;;;;;6.60;3.05;;;;;;;19.69;46.46;98918.59;5436145;26;20102;-77
2022/05/18 06:26:15;;;;;;;6.93;2.90;;;;;;;19.44;46.89;98921.94;5436853;26;20126;-77
2022/05/18 06:28:48;;;;;;;7.45;2.37;;;;;;;18.96;47.87;98910.25;5436372;26;20083;-77
2022/05/18 06:31:15;;;;;;;7.57;2.85;;;;;;;18.23;48.84;98917.38;5436413;26;20054;-76
2022/05/18 06:33:42;;;;;;;10.13;2.80;;;;;;;18.06;49.23;98918.34;5436968;26;20043;-76
2022/05/18 06:36:10;;;;;;;5.35;2.12;;;;;;;18.49;48.48;98924.44;5416385;26;20125;-77
2022/05/18 06:38:37;;;;;;;5.12;2.00;;;;;;;18.58;45.01;98928.28;5435651;26;20134;-76
2022/05/18 06:41:22;;;;;;;6.68;2.65;;;;;;;17.42;45.85;98920.28;5436350;26;20099;-76
2022/05/18 06:43:58;;;;;;;8.25;2.40;;;;;;;17.53;48.38;98930.94;5437097;26;20071;-76
2022/05/18 06:46:26;;;;;;;3.85;1.85;;;;;;;17.30;48.34;98932.25;5437032;26;20357;-76
2022/05/18 06:48:55;;;;;;;6.43;2.22;;;;;;;17.20;45.61;98935.47;5436071;26;20489;-76
2022/05/18 06:51:27;;;;;;;4.10;1.90;;;;;;;16.99;47.15;98932.28;5436132;26;20051;-76
2022/05/18 06:53:55;;;;;;;4.35;1.50;;;;;;;17.47;43.60;98936.53;5436923;26;20118;-76
2022/05/18 06:56:25;;;;;;;6.07;1.73;;;;;;;17.30;42.71;98942.69;5436601;26;20114;-78
2022/05/18 06:58:53;;;;;;;4.47;1.55;;;;;;;16.89;44.74;98944.97;5435933;26;20114;-77
2022/05/18 07:01:20;;;;;;;6.90;1.70;;;;;;;17.10;40.38;98942.94;5436550;26;20103;-78
2022/05/18 07:03:55;;;;;;;4.72;1.55;;;;;;;17.11;43.92;98936.81;5436797;26;20306;-78
2022/05/18 07:06:30;;;;;;;3.95;1.75;;;;;;;16.99;41.97;98938.31;5435021;26;20433;-78
2022/05/18 07:08:57;;;;;;;5.57;1.75;;;;;;;17.33;43.67;98946.88;5435876;26;20068;-78
2022/05/18 07:11:25;;;;;;;6.40;1.73;;;;;;;17.17;41.13;98948.69;5436325;26;20111;-78
2022/05/18 07:13:54;;;;;;;3.70;1.65;;;;;;;16.95;43.44;98959.44;5436128;26;20047;-78
2022/05/18 07:16:22;;;;;;;4.12;1.60;;;;;;;17.23;43.34;98961.41;5416387;26;20548;-78
2022/05/18 07:18:51;;;;;;;5.93;2.10;;;;;;;17.08;45.22;98954.41;5436041;26;20063;-78
2022/05/18 07:21:20;;;;;;;7.05;1.83;;;;;;;17.86;46.05;98972.59;5436146;26;20051;-78
2022/05/18 07:23:51;;;;;;;5.03;1.87;;;;;;;18.10;41.66;98985.16;5436338;26;20043;-78
2022/05/18 07:26:19;;;;;;;2.97;1.50;;;;;;;18.00;42.37;98965.75;5436629;26;20126;-78
2022/05/18 07:28:47;;;;;;;4.90;1.80;;;;;;;18.01;42.57;98978.69;5415656;26;20066;-78
2022/05/18 07:31:15;;;;;;;5.68;2.10;;;;;;;18.00;43.77;98976.19;5436087;26;20405;-78
2022/05/18 07:34:02;;;;;;;6.43;1.73;;;;;;;18.41;43.41;98977.19;5436476;26;20111;-78
2022/05/18 07:36:29;;;;;;;4.03;1.60;;;;;;;18.34;41.73;98978.47;5436975;26;20114;-77
2022/05/18 07:38:56;;;;;;;5.87;2.10;;;;;;;18.05;40.51;98988.03;5436035;26;20432;-78
2022/05/18 07:41:23;;;;;;;6.80;2.00;;;;;;;18.61;40.36;98991.69;5436161;26;20051;-77
2022/05/18 07:43:51;;;;;;;4.45;1.60;;;;;;;18.55;40.64;98986.81;5436445;26;20106;-77
2022/05/18 07:46:18;;;;;;;5.03;1.52;;;;;;;18.20;40.00;98991.53;5436449;26;20059;-78
2022/05/18 07:48:45;;;;;;;5.68;1.55;;;;;;;17.76;37.19;98984.50;5435597;26;20070;-78
2022/05/18 07:51:14;;;;;;;2.95;1.50;;;;;;;17.67;39.02;98994.59;5436524;26;20339;-78
2022/05/18 07:53:41;;;;;;;3.83;1.40;;;;;;;17.83;38.59;98979.75;5436717;26;20102;-77
2022/05/18 07:56:12;;;;;;;3.83;1.58;;;;;;;17.51;40.62;98997.19;5435988;26;20343;-77
2022/05/18 07:58:39;;;;;;;6.80;1.87;;;;;;;17.74;40.73;99002.00;5435889;26;20408;-77
2022/05/18 08:01:08;;;;;;;5.87;2.10;;;;;;;18.09;40.26;98999.16;5436176;26;20099;-77
2022/05/18 08:03:36;;;;;;;5.28;2.00;;;;;;;17.79;40.35;99012.19;5436232;26;20401;-79
2022/05/18 08:06:03;;;;;;;6.62;1.85;;;;;;;18.45;40.00;99014.41;5416180;26;20063;-79
2022/05/18 08:08:30;;;;;;;6.62;2.00;;;;;;;19.12;37.73;99015.56;5415680;26;20055;-78
2022/05/18 08:16:30;;;;;;;5.70;2.30;;;;;;;19.10;42.14;99020.06;5436590;26;20069;-79
2022/05/18 08:18:57;;;;;;;7.82;2.10;;;;;;;19.21;39.79;99011.53;5436052;26;20716;-78
2022/05/18 08:21:24;;;;;;;5.93;2.15;;;;;;;19.52;40.84;99013.06;5436319;26;20106;-78
2022/05/18 08:23:52;;;;;;;6.15;1.77;;;;;;;20.21;37.94;99035.66;5435963;26;20050;-78
2022/05/18 08:26:23;;;;;;;5.50;2.30;;;;;;;18.99;39.71;99031.19;5436711;26;20721;-79
2022/05/18 08:28:51;;;;;;;5.85;2.35;;;;;;;19.07;40.44;99026.34;5436056;26;20086;-79
2022/05/18 08:31:18;;;;;;;5.82;2.35;;;;;;;19.13;38.16;99024.25;5436085;26;20043;-79
2022/05/18 08:33:45;;;;;;;5.95;2.33;;;;;;;19.47;39.58;99030.84;5436445;26;20048;-79
2022/05/18 08:36:14;;;;;;;4.45;1.90;;;;;;;20.39;38.91;99031.78;5436446;26;20420;-79
2022/05/18 08:38:41;;;;;;;7.78;2.15;;;;;;;19.71;36.91;99023.22;5435412;26;20096;-78
2022/05/18 08:41:18;;;;;;;4.15;1.60;;;;;;;19.22;38.29;99027.13;5436040;26;20074;-78
2022/05/18 08:43:51;;;;;;;4.07;1.70;;;;;;;19.11;39.02;99021.75;5435532;26;20461;-78
2022/05/18 08:46:24;;;;;;;4.70;1.92;;;;;;;19.38;38.75;99034.88;5436522;26;20126;-79
2022/05/18 08:49:18;;;;;;;3.58;1.60;;;;;;;19.75;37.88;99038.63;5436019;26;20063;-78
2022/05/18 08:51:54;;;;;;;5.45;2.17;;;;;;;19.53;38.07;99033.91;5415197;26;20106;-78
2022/05/18 08:54:55;;;;;;;5.43;2.12;;;;;;;19.85;37.50;99044.97;5436566;26;20359;-78
2022/05/18 08:57:30;;;;;;;5.95;2.00;;;;;;;20.04;38.14;99049.00;5435284;26;20075;-79
2022/05/18 08:59:59;;;;;;;3.50;1.33;;;;;;;20.33;36.21;99047.94;5415261;26;20075;-77
2022/05/18 09:02:31;;;;;;;3.35;1.30;;;;;;;19.79;34.65;99049.78;5416131;26;20130;-77
2022/05/18 09:05:06;;;;;;;2.08;1.20;;;;;;;19.81;33.50;99056.59;5416068;26;20118;-78
2022/05/18 09:08:23;;;;;;;7.10;1.75;;;;;;;19.54;32.69;99037.34;5436473;26;20108;-78
2022/05/18 09:10:53;;;;;;;6.93;1.60;;;;;;;20.38;35.34;99051.06;5410761;26;20519;-78
2022/05/18 09:13:21;;;;;;;5.07;1.60;;;;;;;20.67;35.18;99048.31;5436288;26;20784;-79
2022/05/18 09:16:07;;;;;;;4.03;1.50;;;;;;;20.97;33.64;99047.97;5436366;26;20096;-79
2022/05/18 09:18:57;;;;;;;3.37;1.37;;;;;;;21.52;34.04;99044.94;5435700;26;20516;-79
2022/05/18 09:22:02;;;;;;;2.37;1.35;;;;;;;21.62;31.10;99037.25;5436512;26;20059;-79
2022/05/18 09:25:07;;;;;;;5.80;1.67;;;;;;;20.41;31.71;99042.16;5435982;26;20051;-79
2022/05/18 09:27:33;;;;;;;4.70;1.50;;;;;;;20.28;34.82;99055.25;5436129;26;20094;-77
2022/05/18 09:30:17;;;;;;;3.55;1.40;;;;;;;20.20;32.73;99060.12;5435844;26;20082;-77
2022/05/18 09:33:09;;;;;;;3.95;1.58;;;;;;;20.57;32.91;99060.34;5415511;26;20733;-79
2022/05/18 09:35:36;;;;;;;3.25;1.50;;;;;;;21.29;32.14;99045.75;5436520;26;20058;-78
2022/05/18 09:38:10;;;;;;;2.50;1.10;;;;;;;20.97;33.14;99046.19;5436514;26;20051;-78
2022/05/18 09:40:48;;;;;;;2.83;1.27;;;;;;;20.42;32.24;99067.44;5435700;26;20058;-79
2022/05/18 09:43:19;;;;;;;8.57;1.73;;;;;;;21.00;31.27;99063.50;5436115;26;20114;-78
2022/05/18 09:45:48;;;;;;;4.10;1.30;;;;;;;20.21;31.97;99049.59;5436512;26;20046;-78
2022/05/18 09:48:28;;;;;;;4.72;1.67;;;;;;;20.33;31.86;99052.31;5435828;26;20046;-78
2022/05/18 09:50:56;;;;;;;2.50;1.08;;;;;;;20.66;31.61;99055.31;5414269;26;20127;-79
2022/05/18 09:53:23;;;;;;;3.95;1.75;;;;;;;20.77;31.78;99051.97;5434519;26;20075;-79
2022/05/18 09:55:50;;;;;;;3.90;1.65;;;;;;;20.56;31.65;99062.13;5435678;26;20133;-79
2022/05/18 09:58:24;;;;;;;3.28;1.27;;;;;;;21.24;32.14;99053.06;5415512;26;20110;-79
2022/05/18 10:07:27;;;;;;;2.55;1.20;;;;;;;22.08;30.68;99047.03;5415114;26;20067;-79
2022/05/18 10:09:26;;;;;;;3.55;1.33;;;;;;;21.14;31.86;99058.13;5436210;26;20121;-78
2022/05/18 10:11:53;;;;;;;4.15;1.60;;;;;;;21.04;33.74;99052.66;5436906;26;20079;-78
2022/05/18 10:14:31;;;;;;;4.85;1.37;;;;;;;20.40;32.25;99061.44;5436140;26;20074;-78
2022/05/18 10:17:08;;;;;;;5.18;1.60;;;;;;;21.15;32.14;99059.78;5435783;26;20358;-78
2022/05/18 10:19:43;;;;;;;6.60;1.95;;;;;;;22.00;30.95;99059.88;5416340;26;20051;-79
2022/05/18 10:22:12;;;;;;;3.42;1.65;;;;;;;22.26;29.42;99061.44;5436425;26;20059;-79
2022/05/18 10:24:49;;;;;;;3.87;1.30;;;;;;;22.20;28.55;99064.53;5436502;26;20553;-79
2022/05/18 10:27:15;;;;;;;5.40;1.67;;;;;;;21.22;31.35;99062.84;5416914;26;20052;-78
2022/05/18 10:30:29;;;;;;;3.17;1.42;;;;;;;21.74;29.89;99067.88;5436967;26;20042;-78
2022/05/18 10:33:06;;;;;;;10.43;2.22;;;;;;;22.17;28.63;99067.41;5344192;26;20096;-78
2022/05/18 10:35:52;;;;;;;6.40;2.00;;;;;;;22.27;30.39;99068.38;5325525;26;20104;-78
2022/05/18 10:38:31;;;;;;;4.47;1.60;;;;;;;22.13;30.96;99064.16;5412979;26;20500;-78
2022/05/18 10:41:04;;;;;;;3.12;1.55;;;;;;;22.15;28.54;99061.41;5417315;26;20052;-79
2022/05/18 10:43:38;;;;;;;5.47;2.20;;;;;;;22.19;30.05;99061.06;5436714;26;20104;-78
2022/05/18 10:46:28;;;;;;;5.20;1.67;;;;;;;21.12;29.32;99067.88;5418389;26;20082;-78
2022/05/18 10:49:21;;;;;;;3.00;1.50;;;;;;;22.14;28.37;99050.06;5436966;26;20067;-78
2022/05/18 10:51:49;;;;;;;4.85;1.75;;;;;;;22.13;30.13;99055.44;5424351;26;20087;-78
2022/05/18 10:54:25;;;;;;;5.62;1.70;;;;;;;21.15;31.37;99064.19;5437162;26;20056;-78
2022/05/18 10:57:18;;;;;;;4.33;1.60;;;;;;;22.16;27.65;99060.47;5416832;26;20405;-79
2022/05/18 10:59:53;;;;;;;3.60;1.52;;;;;;;22.68;28.92;99064.44;5417253;26;20114;-79
2022/05/18 11:02:27;;;;;;;6.15;1.65;;;;;;;22.74;28.53;99071.84;5416942;26;20027;-79
2022/05/18 11:05:16;;;;;;;8.88;3.12;;;;;;;22.84;30.97;99059.69;5435738;26;20063;-79
2022/05/18 11:07:43;;;;;;;9.98;2.90;;;;;;;22.60;34.78;99075.53;5435624;26;20111;-78
2022/05/18 11:10:12;;;;;;;6.47;2.70;;;;;;;22.78;36.00;99068.03;5435240;26;20065;-78
2022/05/18 11:12:53;;;;;;;8.27;2.90;;;;;;;22.12;37.75;99066.91;5434761;26;20102;-77
2022/05/18 11:15:46;;;;;;;8.45;2.70;;;;;;;21.51;38.69;99059.03;5435327;26;20427;-77
2022/05/18 11:18:35;;;;;;;8.07;2.67;;;;;;;22.41;37.47;99068.19;5436292;26;20333;-77
2022/05/18 11:21:14;;;;;;;6.68;2.75;;;;;;;22.28;36.35;99080.56;5437384;26;20102;-77
2022/05/18 11:24:07;;;;;;;7.55;2.75;;;;;;;22.21;35.99;99074.94;5437113;26;20480;-79
2022/05/18 11:26:49;;;;;;;7.03;2.90;;;;;;;22.08;35.90;99073.31;5437527;26;20101;-77
2022/05/18 11:29:16;;;;;;;7.03;2.62;;;;;;;22.41;35.63;99068.19;5437379;26;20059;-77
2022/05/18 11:32:21;;;;;;;6.57;2.47;;;;;;;22.71;35.97;99062.41;5436917;26;20384;-78
2022/05/18 11:35:02;;;;;;;5.85;2.58;;;;;;;22.50;37.15;99064.88;5343927;26;20094;-78
2022/05/18 11:37:32;;;;;;;5.53;2.85;;;;;;;22.40;34.71;99055.16;5409518;26;20078;-77
2022/05/18 11:40:11;;;;;;;7.97;2.70;;;;;;;22.97;35.68;99057.81;5437168;26;20055;-78
2022/05/18 11:42:47;;;;;;;7.30;2.67;;;;;;;22.87;34.15;99050.75;5437317;26;20054;-78
2022/05/18 11:45:49;;;;;;;6.47;2.60;;;;;;;22.92;37.11;99059.09;5437788;26;20070;-79
2022/05/18 11:48:32;;;;;;;4.12;1.98;;;;;;;23.05;34.00;99062.44;5421479;26;20063;-78
2022/05/18 11:51:27;;;;;;;6.90;2.70;;;;;;;22.31;35.25;99063.72;5416928;26;20130;-78
2022/05/18 11:54:22;;;;;;;6.70;2.78;;;;;;;21.84;36.32;99060.16;5436940;26;20130;-78
2022/05/18 11:57:01;;;;;;;7.65;2.90;;;;;;;21.56;37.50;99067.41;5437646;26;20087;-78
2022/05/18 12:00:00;;;;;;;7.12;2.80;;;;;;;21.67;37.94;99056.97;5417839;26;20134;-78
2022/05/18 12:02:49;;;;;;;7.40;2.80;;;;;;;21.72;38.00;99068.94;5437711;26;20106;-78